sensor_id;sensor_type;location;lat;lon;timestamp;pressure;altitude;pressure_sealevel;temperature;humidity
33265;BME280;31404;53.974;-1.086;2022-11-12T00:00:37;102476.79;;;11.28;100.00
33265;BME280;31404;53.974;-1.086;2022-11-12T00:05:39;102476.67;;;10.99;100.00
33265;BME280;31404;53.974;-1.086;2022-11-12T00:10:39;102484.90;;;10.11;100.00
33265;BME280;31404;53.974;-1.086;2022-11-12T00:15:38;102494.24;;;11.44;100.00
33265;BME280;31404;53.974;-1.086;2022-11-12T00:20:39;102493.54;;;11.54;100.00
33265;BME280;31404;53.974;-1.086;2022-11-12T00:25:40;102509.90;;;10.43;100.00
33265;BME280;31404;53.974;-1.086;2022-11-12T00:30:39;102511.21;;;10.62;100.00
33265;BME280;31404;53.974;-1.086;2022-11-12T00:35:38;102504.12;;;11.53;100.00
33265;BME280;31404;53.974;-1.086;2022-11-12T00:40:37;102501.15;;;12.38;100.00
33265;BME280;31404;53.974;-1.086;2022-11-12T00:45:35;102514.81;;;12.72;98.12
33265;BME280;31404;53.974;-1.086;2022-11-12T00:50:35;102518.37;;;11.90;100.00
33265;BME280;31404;53.974;-1.086;2022-11-12T00:55:37;102523.64;;;10.96;100.00
33265;BME280;31404;53.974;-1.086;2022-11-12T01:00:36;102515.13;;;11.14;100.00
33265;BME280;31404;53.974;-1.086;2022-11-12T01:05:35;102515.83;;;10.61;100.00
33265;BME280;31404;53.974;-1.086;2022-11-12T01:10:35;102519.77;;;11.24;100.00
33265;BME280;31404;53.974;-1.086;2022-11-12T01:20:37;102529.75;;;13.53;92.83
33265;BME280;31404;53.974;-1.086;2022-11-12T01:25:37;102535.27;;;13.63;90.99
33265;BME280;31404;53.974;-1.086;2022-11-12T01:30:33;102536.38;;;12.04;97.95
33265;BME280;31404;53.974;-1.086;2022-11-12T01:35:35;102541.94;;;11.15;100.00
33265;BME280;31404;53.974;-1.086;2022-11-12T01:40:36;102529.67;;;11.42;100.00
33265;BME280;31404;53.974;-1.086;2022-11-12T01:45:36;102528.08;;;10.95;100.00
33265;BME280;31404;53.974;-1.086;2022-11-12T01:50:38;102532.34;;;11.54;100.00
33265;BME280;31404;53.974;-1.086;2022-11-12T01:55:36;102524.15;;;13.41;92.39
33265;BME280;31404;53.974;-1.086;2022-11-12T02:00:36;102516.07;;;13.16;92.56
33265;BME280;31404;53.974;-1.086;2022-11-12T02:05:37;102512.41;;;13.78;88.46
33265;BME280;31404;53.974;-1.086;2022-11-12T02:10:36;102515.01;;;14.55;83.28
33265;BME280;31404;53.974;-1.086;2022-11-12T02:15:37;102526.55;;;11.87;95.08
33265;BME280;31404;53.974;-1.086;2022-11-12T02:20:37;102523.27;;;13.34;89.21
33265;BME280;31404;53.974;-1.086;2022-11-12T02:25:35;102532.44;;;12.48;93.37
33265;BME280;31404;53.974;-1.086;2022-11-12T02:30:37;102536.33;;;11.91;96.93
33265;BME280;31404;53.974;-1.086;2022-11-12T02:35:35;102535.53;;;12.67;92.31
33265;BME280;31404;53.974;-1.086;2022-11-12T02:41:12;102534.86;;;12.44;91.72
33265;BME280;31404;53.974;-1.086;2022-11-12T02:45:39;102534.17;;;12.96;89.95
33265;BME280;31404;53.974;-1.086;2022-11-12T02:50:39;102523.96;;;11.85;96.04
33265;BME280;31404;53.974;-1.086;2022-11-12T02:55:39;102528.62;;;9.90;100.00
33265;BME280;31404;53.974;-1.086;2022-11-12T03:00:38;102527.53;;;11.04;100.00
33265;BME280;31404;53.974;-1.086;2022-11-12T03:05:39;102528.53;;;9.10;100.00
33265;BME280;31404;53.974;-1.086;2022-11-12T03:10:39;102527.62;;;9.55;100.00
33265;BME280;31404;53.974;-1.086;2022-11-12T03:15:39;102521.86;;;9.66;100.00
33265;BME280;31404;53.974;-1.086;2022-11-12T03:20:38;102516.30;;;10.59;100.00
33265;BME280;31404;53.974;-1.086;2022-11-12T03:25:39;102518.43;;;10.03;100.00
33265;BME280;31404;53.974;-1.086;2022-11-12T03:30:39;102523.83;;;10.04;100.00
33265;BME280;31404;53.974;-1.086;2022-11-12T03:35:38;102529.30;;;10.90;100.00
33265;BME280;31404;53.974;-1.086;2022-11-12T03:40:38;102519.19;;;11.50;98.31
33265;BME280;31404;53.974;-1.086;2022-11-12T03:45:37;102508.34;;;12.13;91.93
33265;BME280;31404;53.974;-1.086;2022-11-12T03:50:37;102511.76;;;11.45;98.24
33265;BME280;31404;53.974;-1.086;2022-11-12T03:55:35;102516.44;;;10.43;100.00
33265;BME280;31404;53.974;-1.086;2022-11-12T04:00:35;102515.12;;;11.39;98.27
33265;BME280;31404;53.974;-1.086;2022-11-12T04:05:35;102514.45;;;11.03;98.63
33265;BME280;31404;53.974;-1.086;2022-11-12T04:10:36;102516.36;;;10.55;100.00
33265;BME280;31404;53.974;-1.086;2022-11-12T04:15:35;102520.60;;;11.45;98.44
33265;BME280;31404;53.974;-1.086;2022-11-12T04:20:37;102516.74;;;9.01;100.00
33265;BME280;31404;53.974;-1.086;2022-11-12T04:25:36;102517.99;;;9.58;100.00
33265;BME280;31404;53.974;-1.086;2022-11-12T04:30:35;102507.05;;;9.83;100.00
33265;BME280;31404;53.974;-1.086;2022-11-12T04:35:35;102512.01;;;9.44;100.00
33265;BME280;31404;53.974;-1.086;2022-11-12T04:40:35;102517.59;;;9.99;100.00
33265;BME280;31404;53.974;-1.086;2022-11-12T04:45:36;102516.36;;;10.23;100.00
33265;BME280;31404;53.974;-1.086;2022-11-12T04:50:35;102505.41;;;10.27;100.00
33265;BME280;31404;53.974;-1.086;2022-11-12T04:55:36;102497.30;;;10.80;100.00
33265;BME280;31404;53.974;-1.086;2022-11-12T05:00:37;102496.62;;;11.12;100.00
33265;BME280;31404;53.974;-1.086;2022-11-12T05:05:42;102490.27;;;12.49;95.58
33265;BME280;31404;53.974;-1.086;2022-11-12T05:10:35;102496.01;;;12.54;94.68
33265;BME280;31404;53.974;-1.086;2022-11-12T05:15:35;102493.54;;;11.32;100.00
33265;BME280;31404;53.974;-1.086;2022-11-12T05:20:36;102491.92;;;9.86;100.00
33265;BME280;31404;53.974;-1.086;2022-11-12T05:25:37;102481.26;;;10.13;100.00
33265;BME280;31404;53.974;-1.086;2022-11-12T05:30:36;102492.92;;;10.08;100.00
33265;BME280;31404;53.974;-1.086;2022-11-12T05:35:36;102493.70;;;9.95;100.00
33265;BME280;31404;53.974;-1.086;2022-11-12T05:40:35;102490.95;;;10.92;100.00
33265;BME280;31404;53.974;-1.086;2022-11-12T05:45:35;102494.46;;;11.23;100.00
33265;BME280;31404;53.974;-1.086;2022-11-12T05:50:35;102499.04;;;10.60;100.00
33265;BME280;31404;53.974;-1.086;2022-11-12T05:55:36;102500.56;;;10.43;100.00
33265;BME280;31404;53.974;-1.086;2022-11-12T06:00:36;102497.40;;;9.79;100.00
33265;BME280;31404;53.974;-1.086;2022-11-12T06:05:37;102498.72;;;9.59;100.00
33265;BME280;31404;53.974;-1.086;2022-11-12T06:10:36;102507.62;;;10.18;100.00
33265;BME280;31404;53.974;-1.086;2022-11-12T06:15:30;102502.63;;;10.06;100.00
33265;BME280;31404;53.974;-1.086;2022-11-12T06:20:36;102509.45;;;10.94;100.00
33265;BME280;31404;53.974;-1.086;2022-11-12T06:25:40;102507.04;;;8.78;100.00
33265;BME280;31404;53.974;-1.086;2022-11-12T06:30:36;102505.23;;;9.29;100.00
33265;BME280;31404;53.974;-1.086;2022-11-12T06:35:34;102508.69;;;8.89;100.00
33265;BME280;31404;53.974;-1.086;2022-11-12T06:40:36;102508.37;;;10.05;100.00
33265;BME280;31404;53.974;-1.086;2022-11-12T06:45:36;102508.85;;;9.86;100.00
33265;BME280;31404;53.974;-1.086;2022-11-12T06:50:37;102513.35;;;10.40;100.00
33265;BME280;31404;53.974;-1.086;2022-11-12T06:55:38;102517.83;;;10.15;100.00
33265;BME280;31404;53.974;-1.086;2022-11-12T07:00:39;102517.83;;;11.36;100.00
33265;BME280;31404;53.974;-1.086;2022-11-12T07:05:38;102521.45;;;9.82;100.00
33265;BME280;31404;53.974;-1.086;2022-11-12T07:10:38;102519.36;;;10.90;100.00
33265;BME280;31404;53.974;-1.086;2022-11-12T07:15:38;102522.39;;;9.69;100.00
33265;BME280;31404;53.974;-1.086;2022-11-12T07:20:37;102537.76;;;10.88;100.00
33265;BME280;31404;53.974;-1.086;2022-11-12T07:25:36;102543.35;;;10.92;100.00
33265;BME280;31404;53.974;-1.086;2022-11-12T07:30:37;102543.46;;;9.80;100.00
33265;BME280;31404;53.974;-1.086;2022-11-12T07:35:35;102542.32;;;9.42;100.00
33265;BME280;31404;53.974;-1.086;2022-11-12T07:40:35;102542.97;;;10.31;100.00
33265;BME280;31404;53.974;-1.086;2022-11-12T07:45:37;102549.86;;;11.37;98.34
33265;BME280;31404;53.974;-1.086;2022-11-12T07:50:36;102551.10;;;10.67;99.53
33265;BME280;31404;53.974;-1.086;2022-11-12T07:55:35;102563.37;;;9.68;100.00
33265;BME280;31404;53.974;-1.086;2022-11-12T08:00:35;102557.97;;;9.51;100.00
33265;BME280;31404;53.974;-1.086;2022-11-12T08:05:35;102561.07;;;10.16;100.00
33265;BME280;31404;53.974;-1.086;2022-11-12T08:10:35;102559.02;;;10.63;100.00
33265;BME280;31404;53.974;-1.086;2022-11-12T08:15:35;102551.39;;;10.79;98.66
33265;BME280;31404;53.974;-1.086;2022-11-12T08:20:38;102557.70;;;11.20;96.63
33265;BME280;31404;53.974;-1.086;2022-11-12T08:25:36;102557.04;;;8.89;100.00
33265;BME280;31404;53.974;-1.086;2022-11-12T08:30:35;102562.01;;;10.05;99.97
33265;BME280;31404;53.974;-1.086;2022-11-12T08:35:37;102561.76;;;9.76;100.00
33265;BME280;31404;53.974;-1.086;2022-11-12T08:40:35;102565.47;;;10.02;100.00
33265;BME280;31404;53.974;-1.086;2022-11-12T08:45:36;102573.13;;;9.32;100.00
33265;BME280;31404;53.974;-1.086;2022-11-12T08:50:36;102573.74;;;9.62;100.00
33265;BME280;31404;53.974;-1.086;2022-11-12T08:55:36;102564.85;;;9.65;100.00
33265;BME280;31404;53.974;-1.086;2022-11-12T09:00:38;102557.90;;;10.77;97.99
33265;BME280;31404;53.974;-1.086;2022-11-12T09:05:35;102564.98;;;11.32;94.51
33265;BME280;31404;53.974;-1.086;2022-11-12T09:10:36;102558.48;;;10.83;94.88
33265;BME280;31404;53.974;-1.086;2022-11-12T09:15:35;102554.21;;;11.40;100.00
33265;BME280;31404;53.974;-1.086;2022-11-12T09:20:36;102549.05;;;12.32;88.90
33265;BME280;31404;53.974;-1.086;2022-11-12T09:25:38;102550.97;;;11.75;90.17
33265;BME280;31404;53.974;-1.086;2022-11-12T09:30:40;102561.99;;;9.74;100.00
33265;BME280;31404;53.974;-1.086;2022-11-12T09:35:36;102551.07;;;10.48;97.70
33265;BME280;31404;53.974;-1.086;2022-11-12T09:45:36;102559.71;;;9.27;100.00
33265;BME280;31404;53.974;-1.086;2022-11-12T09:50:38;102548.17;;;10.31;96.37
33265;BME280;31404;53.974;-1.086;2022-11-12T09:55:38;102555.46;;;11.34;92.43
33265;BME280;31404;53.974;-1.086;2022-11-12T10:00:35;102552.40;;;12.48;86.51
33265;BME280;31404;53.974;-1.086;2022-11-12T10:05:39;102557.73;;;10.29;94.47
33265;BME280;31404;53.974;-1.086;2022-11-12T10:30:35;102596.95;;;9.26;100.00
33265;BME280;31404;53.974;-1.086;2022-11-12T10:35:36;102582.21;;;10.34;100.00
33265;BME280;31404;53.974;-1.086;2022-11-12T10:40:40;102579.27;;;11.39;92.66
33265;BME280;31404;53.974;-1.086;2022-11-12T10:45:38;102573.48;;;9.54;100.00
33265;BME280;31404;53.974;-1.086;2022-11-12T10:55:37;102567.07;;;10.76;94.37
33265;BME280;31404;53.974;-1.086;2022-11-12T11:00:36;102561.49;;;10.77;94.36
33265;BME280;31404;53.974;-1.086;2022-11-12T11:05:36;102549.64;;;10.23;94.07
33265;BME280;31404;53.974;-1.086;2022-11-12T11:10:36;102544.62;;;10.72;94.44
33265;BME280;31404;53.974;-1.086;2022-11-12T11:15:36;102549.10;;;10.49;94.43
33265;BME280;31404;53.974;-1.086;2022-11-12T11:25:36;102537.68;;;9.97;93.50
33265;BME280;31404;53.974;-1.086;2022-11-12T11:30:37;102528.17;;;10.67;92.01
33265;BME280;31404;53.974;-1.086;2022-11-12T11:40:38;102513.77;;;10.22;91.55
33265;BME280;31404;53.974;-1.086;2022-11-12T11:50:40;102502.61;;;10.01;96.27
33265;BME280;31404;53.974;-1.086;2022-11-12T12:35:39;102463.52;;;10.63;96.77
33265;BME280;31404;53.974;-1.086;2022-11-12T12:40:38;102455.33;;;11.98;90.13
33265;BME280;31404;53.974;-1.086;2022-11-12T12:50:38;102446.21;;;10.90;94.45
33265;BME280;31404;53.974;-1.086;2022-11-12T12:55:40;102455.09;;;11.42;89.48
33265;BME280;31404;53.974;-1.086;2022-11-12T13:00:40;102445.53;;;10.34;96.78
33265;BME280;31404;53.974;-1.086;2022-11-12T13:05:38;102434.24;;;11.12;93.44
33265;BME280;31404;53.974;-1.086;2022-11-12T13:20:39;102403.02;;;12.22;90.77
33265;BME280;31404;53.974;-1.086;2022-11-12T13:25:42;102398.68;;;12.19;91.26
33265;BME280;31404;53.974;-1.086;2022-11-12T13:35:37;102416.94;;;12.21;87.65
33265;BME280;31404;53.974;-1.086;2022-11-12T13:40:41;102415.59;;;12.44;87.90
33265;BME280;31404;53.974;-1.086;2022-11-12T13:45:43;102427.50;;;11.79;90.76
33265;BME280;31404;53.974;-1.086;2022-11-12T13:50:35;102439.88;;;11.14;95.72
33265;BME280;31404;53.974;-1.086;2022-11-12T13:55:35;102445.67;;;10.77;97.66
33265;BME280;31404;53.974;-1.086;2022-11-12T14:00:35;102451.35;;;11.03;98.77
33265;BME280;31404;53.974;-1.086;2022-11-12T14:05:36;102449.65;;;11.29;95.40
33265;BME280;31404;53.974;-1.086;2022-11-12T14:20:38;102428.89;;;12.55;88.76
33265;BME280;31404;53.974;-1.086;2022-11-12T14:35:38;102429.42;;;11.63;93.59
33265;BME280;31404;53.974;-1.086;2022-11-12T14:45:36;102424.73;;;12.48;90.48
33265;BME280;31404;53.974;-1.086;2022-11-12T14:55:37;102427.57;;;12.09;91.15
33265;BME280;31404;53.974;-1.086;2022-11-12T15:00:39;102427.92;;;11.92;91.65
33265;BME280;31404;53.974;-1.086;2022-11-12T15:10:40;102413.04;;;13.93;85.17
33265;BME280;31404;53.974;-1.086;2022-11-12T15:15:48;102400.24;;;13.71;83.83
33265;BME280;31404;53.974;-1.086;2022-11-12T15:20:38;102407.42;;;11.84;91.46
33265;BME280;31404;53.974;-1.086;2022-11-12T15:25:38;102395.40;;;13.50;85.64
33265;BME280;31404;53.974;-1.086;2022-11-12T15:30:38;102395.78;;;14.30;80.82
33265;BME280;31404;53.974;-1.086;2022-11-12T15:35:35;102391.79;;;13.33;84.78
33265;BME280;31404;53.974;-1.086;2022-11-12T15:40:41;102393.47;;;14.33;80.97
33265;BME280;31404;53.974;-1.086;2022-11-12T15:45:38;102392.42;;;13.78;82.18
33265;BME280;31404;53.974;-1.086;2022-11-12T15:50:38;102390.22;;;12.93;85.92
33265;BME280;31404;53.974;-1.086;2022-11-12T15:55:39;102387.89;;;13.07;84.49
33265;BME280;31404;53.974;-1.086;2022-11-12T16:00:38;102391.68;;;14.39;81.05
33265;BME280;31404;53.974;-1.086;2022-11-12T16:05:38;102392.19;;;13.86;82.95
33265;BME280;31404;53.974;-1.086;2022-11-12T16:10:39;102388.49;;;13.21;87.53
33265;BME280;31404;53.974;-1.086;2022-11-12T16:15:36;102390.36;;;11.79;93.25
33265;BME280;31404;53.974;-1.086;2022-11-12T16:20:37;102384.20;;;12.81;88.29
33265;BME280;31404;53.974;-1.086;2022-11-12T16:25:39;102385.38;;;14.05;82.93
33265;BME280;31404;53.974;-1.086;2022-11-12T16:30:36;102383.75;;;14.81;79.44
33265;BME280;31404;53.974;-1.086;2022-11-12T16:35:36;102383.89;;;14.79;78.57
33265;BME280;31404;53.974;-1.086;2022-11-12T16:40:35;102378.84;;;15.32;76.48
33265;BME280;31404;53.974;-1.086;2022-11-12T16:50:35;102383.55;;;14.30;82.25
33265;BME280;31404;53.974;-1.086;2022-11-12T16:55:37;102382.68;;;14.65;83.23
33265;BME280;31404;53.974;-1.086;2022-11-12T17:00:44;102379.98;;;13.01;83.90
33265;BME280;31404;53.974;-1.086;2022-11-12T17:05:37;102372.31;;;14.43;81.46
33265;BME280;31404;53.974;-1.086;2022-11-12T17:10:35;102374.91;;;13.16;85.53
33265;BME280;31404;53.974;-1.086;2022-11-12T17:15:35;102373.73;;;14.36;81.10
33265;BME280;31404;53.974;-1.086;2022-11-12T17:20:36;102375.54;;;14.07;82.18
33265;BME280;31404;53.974;-1.086;2022-11-12T17:25:37;102369.03;;;13.08;86.62
33265;BME280;31404;53.974;-1.086;2022-11-12T17:30:38;102365.39;;;12.46;88.89
33265;BME280;31404;53.974;-1.086;2022-11-12T17:35:37;102375.46;;;13.39;86.42
33265;BME280;31404;53.974;-1.086;2022-11-12T17:40:38;102377.84;;;14.51;82.73
33265;BME280;31404;53.974;-1.086;2022-11-12T17:45:37;102376.67;;;13.60;86.41
33265;BME280;31404;53.974;-1.086;2022-11-12T17:50:36;102367.62;;;12.33;90.16
33265;BME280;31404;53.974;-1.086;2022-11-12T17:55:35;102358.53;;;11.16;98.03
33265;BME280;31404;53.974;-1.086;2022-11-12T18:00:36;102354.00;;;9.61;100.00
33265;BME280;31404;53.974;-1.086;2022-11-12T18:05:35;102340.36;;;11.57;96.84
33265;BME280;31404;53.974;-1.086;2022-11-12T18:10:35;102331.41;;;12.12;93.21
33265;BME280;31404;53.974;-1.086;2022-11-12T18:15:35;102368.98;;;11.43;96.88
33265;BME280;31404;53.974;-1.086;2022-11-12T18:20:37;102359.27;;;11.33;100.00
33265;BME280;31404;53.974;-1.086;2022-11-12T18:25:36;102337.04;;;10.48;100.00
33265;BME280;31404;53.974;-1.086;2022-11-12T18:30:37;102334.32;;;12.23;96.00
33265;BME280;31404;53.974;-1.086;2022-11-12T18:35:37;102333.23;;;11.68;99.36
33265;BME280;31404;53.974;-1.086;2022-11-12T18:40:36;102332.03;;;11.97;95.61
33265;BME280;31404;53.974;-1.086;2022-11-12T18:45:36;102339.64;;;11.09;100.00
33265;BME280;31404;53.974;-1.086;2022-11-12T18:50:35;102332.78;;;11.62;97.94
33265;BME280;31404;53.974;-1.086;2022-11-12T18:55:35;102341.75;;;11.90;98.13
33265;BME280;31404;53.974;-1.086;2022-11-12T19:00:36;102365.91;;;13.13;91.17
33265;BME280;31404;53.974;-1.086;2022-11-12T19:05:35;102360.07;;;13.75;86.35
33265;BME280;31404;53.974;-1.086;2022-11-12T19:10:37;102339.95;;;13.23;89.19
33265;BME280;31404;53.974;-1.086;2022-11-12T19:15:38;102319.08;;;12.80;90.69
33265;BME280;31404;53.974;-1.086;2022-11-12T19:20:38;102323.85;;;11.87;96.16
33265;BME280;31404;53.974;-1.086;2022-11-12T19:25:38;102334.03;;;12.11;95.21
33265;BME280;31404;53.974;-1.086;2022-11-12T19:30:36;102319.27;;;12.80;91.49
33265;BME280;31404;53.974;-1.086;2022-11-12T19:35:38;102314.02;;;12.04;95.91
33265;BME280;31404;53.974;-1.086;2022-11-12T19:40:37;102323.55;;;11.47;99.94
33265;BME280;31404;53.974;-1.086;2022-11-12T19:45:37;102315.74;;;12.45;94.41
33265;BME280;31404;53.974;-1.086;2022-11-12T19:50:37;102299.62;;;11.73;99.50
33265;BME280;31404;53.974;-1.086;2022-11-12T19:55:37;102306.32;;;12.04;97.19
33265;BME280;31404;53.974;-1.086;2022-11-12T20:00:35;102319.93;;;12.16;95.76
33265;BME280;31404;53.974;-1.086;2022-11-12T20:05:36;102340.12;;;12.09;95.70
33265;BME280;31404;53.974;-1.086;2022-11-12T20:10:35;102330.39;;;13.16;90.60
33265;BME280;31404;53.974;-1.086;2022-11-12T20:15:38;102302.35;;;12.11;94.85
33265;BME280;31404;53.974;-1.086;2022-11-12T20:20:36;102295.23;;;11.47;97.22
33265;BME280;31404;53.974;-1.086;2022-11-12T20:25:36;102294.92;;;13.15;90.99
33265;BME280;31404;53.974;-1.086;2022-11-12T20:30:41;102311.37;;;13.17;90.01
33265;BME280;31404;53.974;-1.086;2022-11-12T20:35:37;102317.35;;;13.97;85.59
33265;BME280;31404;53.974;-1.086;2022-11-12T20:40:37;102307.02;;;13.32;87.23
33265;BME280;31404;53.974;-1.086;2022-11-12T20:45:36;102300.68;;;14.75;81.32
33265;BME280;31404;53.974;-1.086;2022-11-12T20:50:36;102286.88;;;14.60;81.18
33265;BME280;31404;53.974;-1.086;2022-11-12T20:55:37;102288.38;;;11.81;94.26
33265;BME280;31404;53.974;-1.086;2022-11-12T21:00:36;102302.31;;;13.13;88.96
33265;BME280;31404;53.974;-1.086;2022-11-12T21:10:36;102311.72;;;14.42;81.63
33265;BME280;31404;53.974;-1.086;2022-11-12T21:15:36;102311.02;;;12.61;86.96
33265;BME280;31404;53.974;-1.086;2022-11-12T21:20:38;102316.31;;;13.85;83.09
33265;BME280;31404;53.974;-1.086;2022-11-12T21:25:38;102314.33;;;13.88;82.68
33265;BME280;31404;53.974;-1.086;2022-11-12T21:30:36;102303.39;;;13.47;82.60
33265;BME280;31404;53.974;-1.086;2022-11-12T21:35:35;102296.12;;;13.81;82.00
33265;BME280;31404;53.974;-1.086;2022-11-12T21:40:35;102291.60;;;12.89;86.79
33265;BME280;31404;53.974;-1.086;2022-11-12T21:45:36;102293.68;;;11.39;94.42
33265;BME280;31404;53.974;-1.086;2022-11-12T21:50:36;102287.85;;;12.63;89.36
33265;BME280;31404;53.974;-1.086;2022-11-12T21:55:37;102286.51;;;11.09;94.26
33265;BME280;31404;53.974;-1.086;2022-11-12T22:05:37;102282.14;;;11.21;95.19
33265;BME280;31404;53.974;-1.086;2022-11-12T22:10:36;102287.22;;;10.12;100.00
33265;BME280;31404;53.974;-1.086;2022-11-12T22:15:36;102285.01;;;10.88;99.94
33265;BME280;31404;53.974;-1.086;2022-11-12T22:25:36;102283.84;;;11.59;97.00
33265;BME280;31404;53.974;-1.086;2022-11-12T22:30:37;102288.94;;;12.28;92.34
33265;BME280;31404;53.974;-1.086;2022-11-12T22:35:38;102291.34;;;11.81;93.06
33265;BME280;31404;53.974;-1.086;2022-11-12T22:40:38;102297.75;;;12.52;88.79
33265;BME280;31404;53.974;-1.086;2022-11-12T22:45:39;102303.69;;;13.06;86.41
33265;BME280;31404;53.974;-1.086;2022-11-12T22:50:38;102305.84;;;13.03;85.53
33265;BME280;31404;53.974;-1.086;2022-11-12T22:55:37;102305.40;;;13.04;84.69
33265;BME280;31404;53.974;-1.086;2022-11-12T23:00:38;102307.08;;;12.08;87.51
33265;BME280;31404;53.974;-1.086;2022-11-12T23:05:39;102313.69;;;11.74;91.39
33265;BME280;31404;53.974;-1.086;2022-11-12T23:10:39;102305.34;;;11.38;90.44
33265;BME280;31404;53.974;-1.086;2022-11-12T23:20:39;102300.39;;;9.73;100.00
33265;BME280;31404;53.974;-1.086;2022-11-12T23:25:38;102284.63;;;10.90;96.28
33265;BME280;31404;53.974;-1.086;2022-11-12T23:30:38;102282.70;;;10.33;96.41
33265;BME280;31404;53.974;-1.086;2022-11-12T23:35:38;102278.52;;;10.07;98.39
33265;BME280;31404;53.974;-1.086;2022-11-12T23:40:39;102276.28;;;11.48;91.90
33265;BME280;31404;53.974;-1.086;2022-11-12T23:45:38;102271.15;;;11.32;92.15
33265;BME280;31404;53.974;-1.086;2022-11-12T23:50:38;102267.25;;;11.23;90.85
33265;BME280;31404;53.974;-1.086;2022-11-12T23:55:40;102270.22;;;10.57;94.81
